Time;durP1;ratioP1;P1;durP2;ratioP2;P2;SDS_P1;SDS_P2;PMS_P1;PMS_P2;Temp;Humidity;BMP_temperature;BMP_pressure;BME280_temperature;BME280_humidity;BME280_pressure;Samples;Min_cycle;Max_cycle;Signal;HPM_P1;HPM_P2
2021/12/10 00:00:59;;;;;;;14.00;2.53;;;;;;;;;;5075009;28;20028;-26
2021/12/10 00:03:31;;;;;;;10.50;1.98;;;;;;;;;;5074385;28;20044;-26
2021/12/10 00:06:06;;;;;;;16.70;2.88;;;;;;;;;;5074995;28;20035;-26
2021/12/10 00:08:34;;;;;;;9.93;1.50;;;;;;;;;;5074655;28;20086;-26
2021/12/10 00:11:03;;;;;;;12.45;1.58;;;;;;;;;;5074221;28;20142;-26
2021/12/10 00:13:29;;;;;;;7.88;1.50;;;;;;;;;;5074443;28;20033;-26
2021/12/10 00:15:56;;;;;;;6.40;1.13;;;;;;;;;;5073575;28;20025;-26
2021/12/10 00:18:29;;;;;;;14.50;1.40;;;;;;;;;;5074435;28;20366;-26
2021/12/10 00:20:58;;;;;;;8.73;1.73;;;;;;;;;;5073241;28;20271;-26
2021/12/10 00:23:28;;;;;;;8.75;1.67;;;;;;;;;;5073630;28;20405;-26
2021/12/10 00:25:56;;;;;;;6.65;1.30;;;;;;;;;;5074697;28;20077;-26
2021/12/10 00:28:30;;;;;;;13.68;1.52;;;;;;;;;;5073351;28;20043;-26
2021/12/10 00:31:14;;;;;;;9.82;1.40;;;;;;;;;;5074323;28;20096;-26
2021/12/10 00:33:42;;;;;;;7.00;1.17;;;;;;;;;;5073163;28;20367;-24
2021/12/10 00:36:09;;;;;;;12.63;2.88;;;;;;;;;;5073207;28;20123;-24
2021/12/10 00:38:37;;;;;;;12.32;1.40;;;;;;;;;;5073354;28;20135;-24
2021/12/10 00:41:05;;;;;;;7.47;1.33;;;;;;;;;;5074248;28;20021;-24
2021/12/10 00:43:32;;;;;;;7.63;1.15;;;;;;;;;;5073230;28;20086;-24
2021/12/10 00:45:59;;;;;;;12.03;1.30;;;;;;;;;;5074514;28;20388;-24
2021/12/10 00:48:27;;;;;;;;;;;;;;;;;;5073537;28;20486;-24
2021/12/10 00:50:55;;;;;;;12.43;1.88;;;;;;;;;;5074107;28;20339;-24
2021/12/10 00:53:22;;;;;;;8.82;1.85;;;;;;;;;;5073948;28;20055;-24
2021/12/10 00:55:49;;;;;;;15.23;2.63;;;;;;;;;;5073129;28;20029;-24
2021/12/10 00:58:16;;;;;;;6.07;1.33;;;;;;;;;;5074106;28;20039;-24
2021/12/10 01:00:45;;;;;;;5.95;1.50;;;;;;;;;;5074076;28;20025;-24
2021/12/10 01:03:13;;;;;;;10.52;1.70;;;;;;;;;;5073498;28;20028;-24
2021/12/10 01:05:41;;;;;;;7.35;1.30;;;;;;;;;;5074332;28;20032;-24
2021/12/10 01:08:07;;;;;;;11.80;2.17;;;;;;;;;;5074222;28;20100;-24
2021/12/10 01:10:36;;;;;;;5.90;1.77;;;;;;;;;;5073919;28;20048;-24
2021/12/10 01:13:06;;;;;;;5.82;1.33;;;;;;;;;;5072839;28;20290;-24
2021/12/10 01:24:49;;;;;;;8.57;1.73;;;;;;;;;;5077641;28;20039;-24
2021/12/10 01:27:28;;;;;;;4.53;1.20;;;;;;;;;;5077512;28;20029;-25
2021/12/10 01:29:57;;;;;;;7.70;1.48;;;;;;;;;;5077765;28;20128;-24
2021/12/10 01:32:28;;;;;;;6.18;1.38;;;;;;;;;;5076388;28;20064;-24
2021/12/10 01:34:55;;;;;;;10.70;1.50;;;;;;;;;;5077446;28;20044;-25
2021/12/10 01:37:21;;;;;;;7.90;1.25;;;;;;;;;;5077378;28;20060;-25
2021/12/10 01:39:48;;;;;;;5.17;1.10;;;;;;;;;;5076359;28;20052;-25
2021/12/10 01:44:54;;;;;;;6.43;1.23;;;;;;;;;;5077313;28;20031;-24
2021/12/10 01:47:23;;;;;;;6.80;1.27;;;;;;;;;;5077202;28;20363;-24
2021/12/10 01:49:51;;;;;;;8.98;1.23;;;;;;;;;;5077954;28;20097;-25
2021/12/10 01:52:19;;;;;;;7.78;1.77;;;;;;;;;;5077293;28;20028;-24
2021/12/10 01:54:47;;;;;;;5.22;1.10;;;;;;;;;;5077082;28;20107;-24
2021/12/10 01:57:15;;;;;;;7.00;1.25;;;;;;;;;;5075999;28;20032;-24
2021/12/10 01:59:43;;;;;;;5.70;1.02;;;;;;;;;;5077259;28;20347;-24
2021/12/10 02:02:15;;;;;;;5.75;1.23;;;;;;;;;;5077022;28;20029;-24
2021/12/10 02:04:44;;;;;;;4.43;1.08;;;;;;;;;;5076650;28;20379;-24
2021/12/10 02:07:12;;;;;;;5.63;1.30;;;;;;;;;;5077063;28;20459;-24
2021/12/10 02:09:39;;;;;;;5.78;1.13;;;;;;;;;;5077038;28;20361;-25
2021/12/10 02:12:06;;;;;;;11.25;1.63;;;;;;;;;;5076963;28;20029;-25
2021/12/10 02:14:34;;;;;;;12.30;1.73;;;;;;;;;;5076904;28;20451;-24
2021/12/10 02:17:00;;;;;;;7.53;1.35;;;;;;;;;;5076621;28;20029;-24
2021/12/10 02:19:28;;;;;;;4.97;1.30;;;;;;;;;;5076625;28;20031;-24
2021/12/10 02:21:56;;;;;;;6.32;1.38;;;;;;;;;;5075360;28;20529;-25
2021/12/10 02:24:22;;;;;;;5.93;0.98;;;;;;;;;;5076505;28;20491;-24
2021/12/10 02:26:51;;;;;;;6.90;1.20;;;;;;;;;;5076443;28;20029;-24
2021/12/10 02:29:19;;;;;;;5.60;1.20;;;;;;;;;;5076443;28;20083;-24
2021/12/10 02:31:48;;;;;;;7.55;1.30;;;;;;;;;;5076342;28;20043;-24
2021/12/10 02:34:14;;;;;;;5.80;1.10;;;;;;;;;;5076001;28;20112;-24
2021/12/10 02:36:42;;;;;;;6.33;1.27;;;;;;;;;;5076604;28;20048;-25
2021/12/10 02:39:09;;;;;;;6.15;1.30;;;;;;;;;;5075289;28;20459;-25
2021/12/10 02:41:36;;;;;;;5.97;1.20;;;;;;;;;;5076359;28;20344;-24
2021/12/10 02:44:03;;;;;;;7.30;1.40;;;;;;;;;;5076061;28;20035;-24
2021/12/10 02:46:30;;;;;;;4.90;1.38;;;;;;;;;;5076282;28;20033;-24
2021/12/10 02:48:57;;;;;;;5.90;0.80;;;;;;;;;;5076017;28;20032;-24
2021/12/10 02:51:23;;;;;;;5.13;1.23;;;;;;;;;;5076197;28;20486;-24
2021/12/10 02:53:51;;;;;;;7.78;1.63;;;;;;;;;;5075871;28;20043;-24
2021/12/10 02:56:19;;;;;;;3.72;1.02;;;;;;;;;;5075891;28;20074;-25
2021/12/10 02:58:46;;;;;;;7.13;1.38;;;;;;;;;;5075811;28;20038;-24
2021/12/10 03:01:18;;;;;;;6.15;1.10;;;;;;;;;;5075930;28;20455;-24
2021/12/10 03:03:46;;;;;;;8.60;1.52;;;;;;;;;;5075613;28;20513;-24
2021/12/10 03:06:14;;;;;;;7.35;1.10;;;;;;;;;;5075601;28;20017;-24
2021/12/10 03:08:43;;;;;;;4.57;1.15;;;;;;;;;;5075925;28;20482;-25
2021/12/10 03:11:11;;;;;;;4.53;0.98;;;;;;;;;;5074504;28;20535;-24
2021/12/10 03:13:39;;;;;;;7.40;1.17;;;;;;;;;;5075473;28;20070;-24
2021/12/10 03:16:07;;;;;;;3.90;0.85;;;;;;;;;;5075748;28;20340;-24
2021/12/10 03:18:34;;;;;;;3.85;0.85;;;;;;;;;;5075440;28;20027;-25
2021/12/10 03:21:01;;;;;;;5.53;1.20;;;;;;;;;;5075452;28;20028;-25
2021/12/10 03:23:28;;;;;;;8.52;1.50;;;;;;;;;;5075443;28;20482;-25
2021/12/10 03:25:54;;;;;;;5.20;1.33;;;;;;;;;;5075315;28;20028;-24
2021/12/10 03:28:21;;;;;;;6.23;1.20;;;;;;;;;;5075298;28;20451;-24
2021/12/10 03:30:49;;;;;;;7.63;1.60;;;;;;;;;;5075472;28;20024;-25
2021/12/10 03:33:16;;;;;;;3.53;0.93;;;;;;;;;;5075060;28;20039;-24
2021/12/10 03:35:44;;;;;;;7.32;1.10;;;;;;;;;;5075347;28;20351;-24
2021/12/10 03:38:15;;;;;;;4.43;1.13;;;;;;;;;;5075280;28;20029;-24
2021/12/10 03:40:43;;;;;;;4.72;1.13;;;;;;;;;;5074983;28;20035;-25
2021/12/10 03:43:09;;;;;;;7.03;1.05;;;;;;;;;;5073847;28;20467;-24
2021/12/10 03:45:38;;;;;;;7.68;1.27;;;;;;;;;;5073030;28;20039;-24
2021/12/10 03:48:10;;;;;;;4.13;0.90;;;;;;;;;;5074904;28;20074;-24
2021/12/10 03:50:36;;;;;;;3.47;1.17;;;;;;;;;;5074922;28;20032;-36
2021/12/10 03:53:03;;;;;;;6.18;1.13;;;;;;;;;;5074875;28;20038;-25
2021/12/10 03:55:30;;;;;;;;;;;;;;;;;;5074142;28;20044;-25
2021/12/10 03:57:57;;;;;;;8.10;1.43;;;;;;;;;;5074709;28;19915;-24
2021/12/10 04:00:24;;;;;;;;;;;;;;;;;;5075132;28;20355;-24
2021/12/10 04:02:51;;;;;;;6.10;1.30;;;;;;;;;;5074476;28;19999;-25
2021/12/10 04:05:18;;;;;;;5.22;1.23;;;;;;;;;;5074785;28;20048;-24
2021/12/10 04:07:46;;;;;;;4.63;1.00;;;;;;;;;;5074656;28;20024;-25
2021/12/10 04:10:13;;;;;;;4.50;0.90;;;;;;;;;;5074868;28;20519;-24
2021/12/10 04:12:39;;;;;;;5.57;1.10;;;;;;;;;;5074961;28;20032;-24
2021/12/10 04:15:07;;;;;;;5.63;1.47;;;;;;;;;;5073585;28;20025;-24
2021/12/10 04:17:34;;;;;;;5.53;1.30;;;;;;;;;;5074680;28;20021;-25
2021/12/10 04:20:02;;;;;;;4.80;0.90;;;;;;;;;;5074445;28;20024;-25
2021/12/10 04:22:32;;;;;;;4.30;0.70;;;;;;;;;;5074524;28;20364;-24
2021/12/10 04:25:00;;;;;;;3.15;1.00;;;;;;;;;;5074666;28;20367;-25
2021/12/10 04:27:27;;;;;;;9.68;1.45;;;;;;;;;;5074654;28;20394;-25
2021/12/10 04:29:57;;;;;;;6.15;1.20;;;;;;;;;;5074609;28;20043;-25
2021/12/10 04:32:24;;;;;;;5.13;1.30;;;;;;;;;;5074363;28;20043;-24
2021/12/10 04:34:51;;;;;;;7.78;1.38;;;;;;;;;;5074501;28;20073;-24
2021/12/10 04:37:17;;;;;;;6.80;1.30;;;;;;;;;;5074217;28;20028;-25
2021/12/10 04:39:47;;;;;;;4.93;1.15;;;;;;;;;;5074426;28;20398;-24
2021/12/10 04:42:17;;;;;;;7.18;1.13;;;;;;;;;;5073859;28;20079;-25
2021/12/10 04:44:44;;;;;;;3.95;0.80;;;;;;;;;;5072997;28;20035;-25
2021/12/10 04:47:12;;;;;;;5.30;0.80;;;;;;;;;;5073878;28;20052;-25
2021/12/10 04:49:39;;;;;;;6.35;1.45;;;;;;;;;;5073964;28;20021;-25
2021/12/10 04:52:07;;;;;;;6.80;1.10;;;;;;;;;;5072904;28;20467;-25
2021/12/10 04:54:35;;;;;;;3.45;0.90;;;;;;;;;;5073888;28;20024;-25
2021/12/10 04:57:02;;;;;;;7.38;1.27;;;;;;;;;;5076117;28;20021;-25
2021/12/10 04:59:28;;;;;;;;;;;;;;;;;;5078372;28;20036;-26
2021/12/10 05:01:57;;;;;;;10.53;1.93;;;;;;;;;;5077601;28;19912;-25
2021/12/10 05:04:26;;;;;;;8.55;1.20;;;;;;;;;;5077514;28;20283;-25
2021/12/10 05:06:52;;;;;;;6.57;1.33;;;;;;;;;;5077852;28;20095;-25
2021/12/10 05:09:20;;;;;;;6.85;1.30;;;;;;;;;;5076616;28;20035;-25
2021/12/10 05:11:48;;;;;;;7.18;1.23;;;;;;;;;;5077913;28;20359;-25
2021/12/10 05:14:15;;;;;;;5.25;1.27;;;;;;;;;;5077549;28;20035;-26
2021/12/10 05:16:44;;;;;;;7.00;1.40;;;;;;;;;;5077507;28;20569;-26
2021/12/10 05:19:13;;;;;;;5.97;1.55;;;;;;;;;;5076378;28;20033;-25
2021/12/10 05:21:41;;;;;;;6.43;1.25;;;;;;;;;;5077380;28;20032;-25
2021/12/10 05:24:08;;;;;;;6.07;1.35;;;;;;;;;;5077354;28;20032;-25
2021/12/10 05:26:35;;;;;;;5.63;1.52;;;;;;;;;;5076972;28;20024;-26
2021/12/10 05:29:04;;;;;;;7.75;1.17;;;;;;;;;;5076224;28;20040;-26
2021/12/10 05:31:32;;;;;;;11.43;1.30;;;;;;;;;;5059666;28;20454;-24
2021/12/10 05:33:58;;;;;;;6.45;1.35;;;;;;;;;;5076994;28;20054;-24
2021/12/10 05:36:27;;;;;;;10.60;1.27;;;;;;;;;;5075882;28;20025;-26
2021/12/10 05:38:54;;;;;;;11.52;1.23;;;;;;;;;;5076953;28;20153;-25
2021/12/10 05:41:21;;;;;;;7.20;1.23;;;;;;;;;;5076755;28;20025;-26
2021/12/10 05:43:47;;;;;;;12.10;1.83;;;;;;;;;;5077062;28;20097;-24
2021/12/10 05:46:16;;;;;;;5.43;1.20;;;;;;;;;;5076856;28;20036;-24
2021/12/10 05:48:45;;;;;;;13.73;2.00;;;;;;;;;;5076794;28;20028;-25
2021/12/10 05:51:12;;;;;;;16.23;2.10;;;;;;;;;;5076920;28;20024;-25
2021/12/10 05:53:39;;;;;;;8.40;1.80;;;;;;;;;;5075642;28;20059;-27
2021/12/10 05:56:05;;;;;;;14.95;1.90;;;;;;;;;;5076665;28;20031;-25
2021/12/10 05:58:32;;;;;;;8.73;1.35;;;;;;;;;;5076651;28;20032;-25
2021/12/10 06:01:04;;;;;;;10.00;1.83;;;;;;;;;;5076617;28;20025;-27
2021/12/10 06:03:32;;;;;;;10.48;1.95;;;;;;;;;;5076431;28;20372;-25
2021/12/10 06:06:01;;;;;;;10.45;1.50;;;;;;;;;;5076526;28;20367;-25
2021/12/10 06:08:29;;;;;;;18.63;1.95;;;;;;;;;;5075132;28;20039;-25
2021/12/10 06:10:57;;;;;;;9.50;1.83;;;;;;;;;;5075059;28;20017;-25
2021/12/10 06:13:23;;;;;;;11.32;1.77;;;;;;;;;;5076537;28;20028;-26
2021/12/10 06:15:50;;;;;;;11.88;1.63;;;;;;;;;;5076434;28;20028;-26
2021/12/10 06:18:16;;;;;;;11.03;2.03;;;;;;;;;;5076271;28;20025;-26
2021/12/10 06:20:47;;;;;;;8.00;1.30;;;;;;;;;;5076343;28;20266;-26
2021/12/10 06:23:15;;;;;;;12.45;1.42;;;;;;;;;;5076304;28;20035;-26
2021/12/10 06:25:43;;;;;;;14.23;1.27;;;;;;;;;;5075356;28;20330;-26
2021/12/10 06:28:10;;;;;;;9.60;1.40;;;;;;;;;;5076371;28;20032;-26
2021/12/10 06:30:39;;;;;;;14.93;1.65;;;;;;;;;;5076327;28;20427;-26
2021/12/10 06:33:08;;;;;;;16.45;1.85;;;;;;;;;;5075954;28;20028;-26
2021/12/10 06:35:36;;;;;;;15.40;1.67;;;;;;;;;;5075886;28;20116;-26
2021/12/10 06:38:02;;;;;;;13.60;2.10;;;;;;;;;;5076084;28;20094;-26
2021/12/10 06:40:30;;;;;;;13.57;1.70;;;;;;;;;;5075756;28;20086;-26
2021/12/10 06:42:56;;;;;;;13.52;1.80;;;;;;;;;;5075764;28;20028;-26
2021/12/10 06:45:26;;;;;;;12.30;1.83;;;;;;;;;;5075994;28;20112;-26
2021/12/10 06:47:55;;;;;;;11.07;1.80;;;;;;;;;;5074677;28;20046;-31
2021/12/10 06:50:22;;;;;;;17.63;1.88;;;;;;;;;;5074642;28;20063;-26
2021/12/10 06:52:48;;;;;;;;;;;;;;;;;;5075978;28;20040;-26
2021/12/10 06:55:15;;;;;;;9.88;1.88;;;;;;;;;;5074578;28;20335;-25
2021/12/10 06:57:42;;;;;;;15.40;2.38;;;;;;;;;;5075870;28;20028;-26
2021/12/10 07:00:10;;;;;;;18.60;1.73;;;;;;;;;;5075557;28;20029;-26
2021/12/10 07:02:36;;;;;;;11.55;1.85;;;;;;;;;;5075612;28;20032;-27
2021/12/10 07:05:04;;;;;;;14.00;1.90;;;;;;;;;;5074371;28;20052;-26
2021/12/10 07:07:32;;;;;;;17.55;2.30;;;;;;;;;;5074275;28;20137;-26
2021/12/10 07:09:59;;;;;;;16.48;3.80;;;;;;;;;;5075518;28;20359;-26
2021/12/10 07:12:25;;;;;;;9.85;2.10;;;;;;;;;;5073901;28;20028;-25
2021/12/10 07:14:51;;;;;;;7.78;2.08;;;;;;;;;;5075417;28;20328;-25
2021/12/10 07:17:18;;;;;;;13.65;3.05;;;;;;;;;;5075322;28;20047;-26
2021/12/10 07:19:44;;;;;;;12.30;2.63;;;;;;;;;;5074804;28;20036;-26
2021/12/10 07:22:11;;;;;;;14.68;3.50;;;;;;;;;;5073656;28;20103;-26
2021/12/10 07:24:38;;;;;;;21.10;3.08;;;;;;;;;;5074822;28;20120;-25
2021/12/10 07:27:09;;;;;;;16.48;2.72;;;;;;;;;;5074424;28;20044;-26
2021/12/10 07:29:36;;;;;;;7.93;2.20;;;;;;;;;;5073591;28;20103;-26
2021/12/10 07:32:02;;;;;;;12.83;2.27;;;;;;;;;;5074480;28;20032;-26
2021/12/10 07:34:29;;;;;;;13.55;2.33;;;;;;;;;;5074368;28;20297;-26
2021/12/10 07:36:55;;;;;;;8.98;2.60;;;;;;;;;;5074691;28;20025;-26
2021/12/10 07:39:21;;;;;;;14.57;2.85;;;;;;;;;;5074892;28;20025;-26
2021/12/10 07:41:47;;;;;;;14.88;2.10;;;;;;;;;;5074555;28;20363;-25
2021/12/10 07:44:14;;;;;;;12.85;2.42;;;;;;;;;;5074570;28;20440;-26
2021/12/10 07:46:41;;;;;;;14.40;2.83;;;;;;;;;;5073397;28;20056;-26
2021/12/10 07:49:14;;;;;;;30.25;3.42;;;;;;;;;;5074484;28;20017;-26
2021/12/10 07:51:44;;;;;;;20.10;1.88;;;;;;;;;;5073616;28;20032;-26
2021/12/10 07:54:10;;;;;;;15.07;2.40;;;;;;;;;;5074295;28;20031;-26
2021/12/10 07:56:36;;;;;;;20.67;2.85;;;;;;;;;;5073558;28;20036;-26
2021/12/10 07:59:03;;;;;;;16.93;2.63;;;;;;;;;;5074208;28;20035;-26
2021/12/10 08:01:30;;;;;;;12.52;1.73;;;;;;;;;;5074074;28;20020;-26
2021/12/10 08:03:57;;;;;;;13.93;2.53;;;;;;;;;;5073893;28;20402;-26
2021/12/10 08:06:24;;;;;;;10.73;1.83;;;;;;;;;;5074071;28;20461;-26
2021/12/10 08:08:51;;;;;;;13.73;1.95;;;;;;;;;;5073898;28;20044;-26
2021/12/10 08:11:18;;;;;;;15.43;1.95;;;;;;;;;;5074326;28;20215;-26
2021/12/10 08:13:44;;;;;;;12.75;1.88;;;;;;;;;;5073905;28;20064;-26
2021/12/10 08:16:11;;;;;;;9.63;2.53;;;;;;;;;;5074277;28;20029;-26
2021/12/10 08:18:38;;;;;;;16.85;2.50;;;;;;;;;;5073176;28;20293;-26
2021/12/10 08:21:05;;;;;;;16.83;2.20;;;;;;;;;;5074519;28;20081;-26
2021/12/10 08:23:31;;;;;;;;;;;;;;;;;;5074450;28;20474;-26
2021/12/10 08:25:58;;;;;;;9.17;1.80;;;;;;;;;;5074026;28;20063;-26
2021/12/10 08:28:26;;;;;;;13.07;2.00;;;;;;;;;;5074143;28;20269;-25
2021/12/10 08:30:52;;;;;;;18.95;3.05;;;;;;;;;;5073543;28;20119;-26
2021/12/10 08:33:20;;;;;;;12.57;2.10;;;;;;;;;;5073271;28;20035;-25
2021/12/10 08:35:46;;;;;;;;;;;;;;;;;;5074352;28;20405;-26
2021/12/10 08:38:12;;;;;;;12.52;2.22;;;;;;;;;;5072825;28;19920;-26
2021/12/10 08:40:42;;;;;;;12.23;2.13;;;;;;;;;;5073926;28;20033;-25
2021/12/10 08:43:08;;;;;;;23.58;2.67;;;;;;;;;;5073740;28;20032;-26
2021/12/10 08:45:36;;;;;;;11.98;1.90;;;;;;;;;;5073964;28;20111;-26
2021/12/10 08:48:02;;;;;;;14.63;2.33;;;;;;;;;;5072473;28;20035;-26
2021/12/10 08:50:29;;;;;;;17.42;2.55;;;;;;;;;;5072610;28;20028;-26
2021/12/10 08:53:01;;;;;;;20.13;2.72;;;;;;;;;;5073514;28;20029;-24
2021/12/10 08:55:28;;;;;;;15.25;2.63;;;;;;;;;;5072599;28;20104;-23
2021/12/10 08:57:54;;;;;;;13.68;1.83;;;;;;;;;;5073924;28;20356;-24
2021/12/10 09:00:21;;;;;;;12.05;2.03;;;;;;;;;;5073740;28;20039;-24
2021/12/10 09:02:49;;;;;;;14.75;1.98;;;;;;;;;;5073413;28;20036;-24
2021/12/10 09:05:15;;;;;;;12.27;2.08;;;;;;;;;;5072412;28;20179;-24
2021/12/10 09:07:44;;;;;;;19.53;2.70;;;;;;;;;;5073789;28;20032;-24
2021/12/10 09:10:12;;;;;;;9.85;1.98;;;;;;;;;;5073371;28;20266;-24
2021/12/10 09:12:38;;;;;;;12.82;1.67;;;;;;;;;;5072671;28;20165;-24
2021/12/10 09:15:07;;;;;;;20.73;2.60;;;;;;;;;;5073382;28;20064;-25
2021/12/10 09:17:34;;;;;;;15.30;3.42;;;;;;;;;;5073388;28;20029;-27
2021/12/10 09:20:00;;;;;;;;;;;;;;;;;;5073951;28;20107;-25
2021/12/10 09:22:27;;;;;;;15.70;3.05;;;;;;;;;;5072160;28;20308;-25
2021/12/10 09:24:54;;;;;;;11.90;1.95;;;;;;;;;;5073183;28;20024;-25
2021/12/10 09:27:21;;;;;;;;;;;;;;;;;;5073932;28;20086;-26
2021/12/10 09:29:49;;;;;;;15.77;2.58;;;;;;;;;;5073379;28;19912;-27
2021/12/10 09:32:17;;;;;;;12.10;1.73;;;;;;;;;;5073340;28;20402;-27
2021/12/10 09:34:44;;;;;;;8.02;1.75;;;;;;;;;;5073435;28;20132;-26
2021/12/10 09:37:10;;;;;;;14.50;1.90;;;;;;;;;;5071898;28;20175;-37
2021/12/10 09:39:37;;;;;;;10.68;2.20;;;;;;;;;;5073137;28;20064;-24
2021/12/10 09:42:06;;;;;;;12.32;2.30;;;;;;;;;;5073316;28;20035;-26
2021/12/10 09:44:33;;;;;;;12.90;1.67;;;;;;;;;;5077012;28;20031;-25
2021/12/10 09:46:59;;;;;;;;;;;;;;;;;;5075862;28;20052;-25
2021/12/10 09:49:27;;;;;;;20.25;2.92;;;;;;;;;;5076699;28;19908;-26
2021/12/10 09:51:55;;;;;;;9.85;2.40;;;;;;;;;;5076347;28;20044;-25
2021/12/10 09:54:23;;;;;;;11.85;2.72;;;;;;;;;;5076465;28;20051;-25
2021/12/10 09:56:56;;;;;;;13.05;2.30;;;;;;;;;;5076131;28;20107;-25
2021/12/10 09:59:22;;;;;;;9.18;2.42;;;;;;;;;;5076030;28;20036;-25
2021/12/10 10:01:52;;;;;;;11.23;2.05;;;;;;;;;;5075893;28;20110;-25
2021/12/10 10:04:20;;;;;;;11.35;1.42;;;;;;;;;;5074897;28;20151;-25
2021/12/10 10:06:49;;;;;;;10.60;1.88;;;;;;;;;;5074793;28;20052;-25
2021/12/10 10:09:20;;;;;;;14.07;2.22;;;;;;;;;;5076031;28;20168;-24
2021/12/10 10:11:48;;;;;;;18.92;1.95;;;;;;;;;;5075780;28;20448;-24
2021/12/10 10:14:15;;;;;;;13.90;2.20;;;;;;;;;;5074570;28;20352;-24
2021/12/10 10:16:44;;;;;;;14.38;2.45;;;;;;;;;;5075685;28;20028;-25
2021/12/10 10:19:14;;;;;;;16.33;1.92;;;;;;;;;;5075714;28;20049;-25
2021/12/10 10:21:43;;;;;;;11.65;2.25;;;;;;;;;;5075547;28;20029;-25
2021/12/10 10:24:13;;;;;;;16.95;2.40;;;;;;;;;;5074394;28;20036;-25
2021/12/10 10:26:43;;;;;;;10.45;1.52;;;;;;;;;;5075705;28;20436;-31
2021/12/10 10:29:13;;;;;;;11.50;1.70;;;;;;;;;;5074338;28;20033;-25
2021/12/10 10:31:42;;;;;;;6.05;1.50;;;;;;;;;;5074577;28;20021;-26
2021/12/10 10:34:11;;;;;;;10.20;2.30;;;;;;;;;;5074324;28;20482;-25
2021/12/10 10:36:38;;;;;;;12.10;2.20;;;;;;;;;;5074628;28;20021;-25
2021/12/10 10:39:09;;;;;;;12.07;1.88;;;;;;;;;;5074759;28;20036;-24
2021/12/10 10:41:36;;;;;;;16.75;2.00;;;;;;;;;;5075637;28;20020;-25
2021/12/10 10:44:03;;;;;;;;;;;;;;;;;;5076112;28;20467;-25
2021/12/10 10:46:30;;;;;;;16.85;2.55;;;;;;;;;;5075037;28;19915;-28
2021/12/10 10:48:57;;;;;;;20.23;2.30;;;;;;;;;;5075855;28;20031;-25
2021/12/10 10:51:36;;;;;;;7.07;1.58;;;;;;;;;;5075583;28;20029;-26
2021/12/10 10:54:04;;;;;;;9.50;1.85;;;;;;;;;;5075061;28;20372;-24
2021/12/10 10:56:48;;;;;;;10.88;1.98;;;;;;;;;;5075250;28;20090;-25
2021/12/10 10:59:23;;;;;;;11.93;2.13;;;;;;;;;;5074258;28;20335;-25
2021/12/10 11:01:58;;;;;;;10.00;2.30;;;;;;;;;;5075056;28;20113;-25
2021/12/10 11:04:28;;;;;;;12.93;2.42;;;;;;;;;;5075115;28;20079;-25
2021/12/10 11:07:05;;;;;;;10.25;1.90;;;;;;;;;;5075123;28;20020;-25
2021/12/10 11:09:33;;;;;;;14.27;2.42;;;;;;;;;;5074349;28;20345;-24
2021/12/10 11:12:03;;;;;;;8.10;2.35;;;;;;;;;;5075808;28;20028;-25
2021/12/10 11:14:37;;;;;;;16.10;2.15;;;;;;;;;;5074965;28;20025;-25
2021/12/10 11:17:07;;;;;;;12.55;2.35;;;;;;;;;;5075339;28;20056;-25
2021/12/10 11:19:34;;;;;;;13.15;2.00;;;;;;;;;;5074028;28;20467;-25
2021/12/10 11:22:05;;;;;;;14.95;2.35;;;;;;;;;;5074862;28;20475;-25
2021/12/10 11:24:37;;;;;;;16.83;1.67;;;;;;;;;;5073651;28;20082;-25
2021/12/10 11:27:13;;;;;;;15.32;2.40;;;;;;;;;;5074537;28;20024;-26
2021/12/10 11:29:47;;;;;;;18.30;2.38;;;;;;;;;;5074572;28;20088;-25
2021/12/10 11:32:14;;;;;;;10.00;2.45;;;;;;;;;;5074968;28;20032;-25
2021/12/10 11:34:49;;;;;;;18.23;2.70;;;;;;;;;;5074678;28;20090;-25
2021/12/10 11:37:17;;;;;;;7.75;1.90;;;;;;;;;;5074875;28;20077;-25
2021/12/10 11:39:47;;;;;;;12.80;1.90;;;;;;;;;;5074249;28;20060;-25
2021/12/10 11:42:36;;;;;;;12.38;2.65;;;;;;;;;;5074040;28;20028;-25
2021/12/10 11:45:29;;;;;;;12.57;2.22;;;;;;;;;;5073398;28;20025;-25
2021/12/10 11:48:05;;;;;;;13.88;2.00;;;;;;;;;;5073690;28;20020;-26
2021/12/10 11:50:32;;;;;;;8.95;1.80;;;;;;;;;;5073044;28;20025;-24
2021/12/10 11:53:03;;;;;;;13.10;2.28;;;;;;;;;;5074185;28;20036;-25
2021/12/10 11:55:32;;;;;;;11.55;2.08;;;;;;;;;;5073103;28;20448;-25
2021/12/10 11:57:59;;;;;;;10.63;1.70;;;;;;;;;;5074288;28;20043;-25
2021/12/10 12:00:28;;;;;;;9.90;1.77;;;;;;;;;;5074643;28;20031;-26
2021/12/10 12:03:01;;;;;;;13.43;1.75;;;;;;;;;;5073127;28;20040;-26
2021/12/10 12:05:35;;;;;;;13.48;2.42;;;;;;;;;;5073701;28;20051;-26
2021/12/10 12:08:05;;;;;;;14.55;2.33;;;;;;;;;;5073000;28;20043;-26
2021/12/10 12:10:36;;;;;;;8.63;1.42;;;;;;;;;;5074218;28;20355;-26
2021/12/10 12:13:09;;;;;;;10.10;1.75;;;;;;;;;;5073506;28;20028;-27
2021/12/10 12:15:38;;;;;;;12.52;2.40;;;;;;;;;;5072418;28;20035;-26
2021/12/10 12:18:14;;;;;;;8.95;2.08;;;;;;;;;;5073604;28;20028;-25
2021/12/10 12:20:46;;;;;;;16.60;2.58;;;;;;;;;;5073479;28;20452;-25
2021/12/10 12:26:23;;;;;;;7.90;1.95;;;;;;;;;;5073485;28;20043;-26
2021/12/10 12:28:51;;;;;;;9.63;1.80;;;;;;;;;;5072293;28;20113;-26
2021/12/10 12:31:20;;;;;;;9.13;1.90;;;;;;;;;;5073336;28;20020;-27
2021/12/10 12:33:57;;;;;;;12.63;2.35;;;;;;;;;;5073488;28;20098;-25
2021/12/10 12:36:26;;;;;;;9.98;1.95;;;;;;;;;;5073737;28;20052;-25
2021/12/10 12:38:54;;;;;;;11.57;1.77;;;;;;;;;;5074112;28;20025;-24
2021/12/10 12:41:23;;;;;;;10.18;1.88;;;;;;;;;;5073784;28;20462;-25
2021/12/10 12:44:07;;;;;;;13.25;1.88;;;;;;;;;;5073552;28;20032;-25
2021/12/10 12:46:34;;;;;;;12.43;1.92;;;;;;;;;;5074026;28;20096;-25
2021/12/10 12:52:07;;;;;;;9.88;1.52;;;;;;;;;;5074097;28;20129;-25
2021/12/10 12:54:34;;;;;;;11.40;1.88;;;;;;;;;;5073693;28;20024;-25
2021/12/10 12:57:02;;;;;;;10.02;1.55;;;;;;;;;;5073650;28;20393;-25
2021/12/10 12:59:29;;;;;;;13.57;2.45;;;;;;;;;;5074005;28;20025;-25
2021/12/10 13:01:59;;;;;;;10.50;1.63;;;;;;;;;;5073558;28;20065;-25
2021/12/10 13:04:33;;;;;;;7.75;1.70;;;;;;;;;;5073613;28;20477;-25
2021/12/10 13:07:03;;;;;;;11.07;1.42;;;;;;;;;;5073961;28;20103;-25
2021/12/10 13:09:46;;;;;;;13.68;2.25;;;;;;;;;;5073605;28;20128;-25
2021/12/10 13:12:31;;;;;;;7.03;1.38;;;;;;;;;;5073502;28;20107;-25
2021/12/10 13:15:01;;;;;;;16.30;2.67;;;;;;;;;;5072158;28;20135;-25
2021/12/10 13:17:38;;;;;;;21.75;1.92;;;;;;;;;;5073283;28;20032;-31
2021/12/10 13:20:04;;;;;;;;;;;;;;;;;;5078033;28;20317;-25
2021/12/10 13:22:33;;;;;;;19.70;2.55;;;;;;;;;;5076204;28;19935;-25
2021/12/10 13:25:03;;;;;;;11.20;1.98;;;;;;;;;;5076187;28;20493;-26
2021/12/10 13:27:30;;;;;;;12.75;1.88;;;;;;;;;;5077153;28;20028;-26
2021/12/10 13:29:57;;;;;;;14.00;2.17;;;;;;;;;;5076128;28;20411;-26
2021/12/10 13:32:25;;;;;;;16.63;2.13;;;;;;;;;;5077110;28;20029;-26
2021/12/10 13:34:53;;;;;;;12.52;1.95;;;;;;;;;;5077646;28;20275;-25
2021/12/10 13:37:21;;;;;;;11.77;1.70;;;;;;;;;;5076822;28;20047;-25
2021/12/10 13:39:53;;;;;;;10.65;2.00;;;;;;;;;;5076942;28;20464;-25
2021/12/10 13:42:21;;;;;;;12.52;1.95;;;;;;;;;;5075671;28;20153;-25
2021/12/10 13:44:52;;;;;;;;;;;;;;;;;;5077867;28;20066;-25
2021/12/10 13:47:38;;;;;;;7.55;1.38;;;;;;;;;;5076778;28;19944;-27
2021/12/10 13:50:09;;;;;;;10.88;1.90;;;;;;;;;;5075410;28;20109;-27
2021/12/10 13:52:39;;;;;;;15.38;2.50;;;;;;;;;;5075762;28;20459;-26
2021/12/10 13:55:07;;;;;;;8.40;1.52;;;;;;;;;;5076701;28;20402;-25
2021/12/10 13:57:37;;;;;;;8.80;1.52;;;;;;;;;;5076387;28;20040;-37
2021/12/10 14:00:04;;;;;;;10.82;1.75;;;;;;;;;;5076205;28;20043;-26
2021/12/10 14:02:38;;;;;;;8.32;2.03;;;;;;;;;;5075731;28;20459;-26
2021/12/10 14:05:22;;;;;;;7.35;1.50;;;;;;;;;;5076124;28;20114;-26
2021/12/10 14:07:50;;;;;;;20.25;3.28;;;;;;;;;;5076014;28;20024;-26
2021/12/10 14:10:43;;;;;;;12.70;2.05;;;;;;;;;;5076140;28;20108;-26
2021/12/10 14:13:11;;;;;;;10.68;2.28;;;;;;;;;;5072579;28;20479;-26
2021/12/10 14:15:51;;;;;;;11.05;1.77;;;;;;;;;;5076506;28;20051;-25
2021/12/10 14:18:21;;;;;;;18.65;1.77;;;;;;;;;;5075112;28;20024;-26
2021/12/10 14:20:55;;;;;;;13.52;1.60;;;;;;;;;;5075866;28;20111;-26
2021/12/10 14:23:25;;;;;;;13.30;1.60;;;;;;;;;;5076009;28;20040;-26
2021/12/10 14:25:56;;;;;;;17.92;1.98;;;;;;;;;;5075749;28;20028;-26
2021/12/10 14:28:47;;;;;;;18.05;2.10;;;;;;;;;;5074695;28;20031;-26
2021/12/10 14:31:15;;;;;;;14.32;2.30;;;;;;;;;;5070781;28;20041;-26
2021/12/10 14:33:49;;;;;;;16.63;2.92;;;;;;;;;;5075111;28;20028;-26
2021/12/10 14:36:17;;;;;;;15.02;3.00;;;;;;;;;;5076284;28;20025;-25
2021/12/10 14:38:47;;;;;;;14.48;2.22;;;;;;;;;;5074887;28;20028;-25
2021/12/10 14:41:24;;;;;;;14.38;2.30;;;;;;;;;;5076057;28;20092;-26
2021/12/10 14:43:53;;;;;;;14.40;1.77;;;;;;;;;;5075712;28;20462;-25
2021/12/10 14:46:23;;;;;;;11.25;1.73;;;;;;;;;;5075364;28;20025;-25
2021/12/10 14:49:01;;;;;;;18.65;2.65;;;;;;;;;;5075609;28;20056;-26
2021/12/10 14:51:27;;;;;;;11.98;1.75;;;;;;;;;;5075233;28;20035;-26
2021/12/10 14:54:02;;;;;;;12.68;2.72;;;;;;;;;;5073925;28;20367;-26
2021/12/10 14:56:43;;;;;;;13.80;2.13;;;;;;;;;;5075494;28;20035;-26
2021/12/10 14:59:13;;;;;;;14.63;2.53;;;;;;;;;;5057742;28;20111;-26
2021/12/10 15:01:43;;;;;;;13.60;2.25;;;;;;;;;;5075240;28;20104;-25
2021/12/10 15:04:18;;;;;;;14.35;1.88;;;;;;;;;;5073944;28;20340;-26
2021/12/10 15:07:03;;;;;;;19.27;2.13;;;;;;;;;;5075408;28;20063;-25
2021/12/10 15:09:29;;;;;;;13.73;2.33;;;;;;;;;;5073889;28;20516;-25